Time;durP1;ratioP1;P1;durP2;ratioP2;P2;SDS_P1;SDS_P2;PMS_P1;PMS_P2;Temp;Humidity;BMP_temperature;BMP_pressure;BME280_temperature;BME280_humidity;BME280_pressure;Samples;Min_cycle;Max_cycle;Signal;HPM_P1;HPM_P2
2022/07/13 00:00:28;;;;;;;10.00;9.00;;;;;;;-145.18;100.00;46660.41;5071791;28;20032;-71
2022/07/13 00:02:53;;;;;;;11.00;8.47;;;;;;;-145.18;100.00;46660.41;5070669;28;20070;-71
2022/07/13 00:05:19;;;;;;;12.00;8.97;;;;;;;-145.18;100.00;46660.41;5071798;28;20044;-71
2022/07/13 00:07:44;;;;;;;9.37;8.23;;;;;;;-145.18;100.00;46660.41;5069776;28;20032;-71
2022/07/13 00:10:10;;;;;;;9.30;8.40;;;;;;;-145.18;100.00;46660.41;5071687;28;20120;-71
2022/07/13 00:12:35;;;;;;;11.40;8.37;;;;;;;-145.18;100.00;46660.41;5069915;28;20114;-71
2022/07/13 00:15:01;;;;;;;9.10;8.20;;;;;;;-145.18;100.00;46660.41;5070459;28;20123;-71
2022/07/13 00:17:26;;;;;;;15.23;8.03;;;;;;;-145.18;100.00;46660.41;5071058;28;20500;-71
2022/07/13 00:19:52;;;;;;;9.63;7.90;;;;;;;-145.18;100.00;46660.41;5071285;28;20063;-71
2022/07/13 00:22:17;;;;;;;9.13;8.23;;;;;;;-145.18;100.00;46660.41;5070888;28;20043;-71
2022/07/13 00:24:42;;;;;;;11.70;8.70;;;;;;;-145.18;100.00;46660.41;5071192;28;20047;-71
2022/07/13 00:27:08;;;;;;;9.90;8.10;;;;;;;-145.18;100.00;46660.41;5070867;28;20658;-70
2022/07/13 00:29:33;;;;;;;11.50;7.80;;;;;;;-145.18;100.00;46677.97;5071142;28;20035;-71
2022/07/13 00:31:58;;;;;;;10.43;7.70;;;;;;;-145.18;100.00;46640.88;5070439;28;20385;-70
2022/07/13 00:34:24;;;;;;;10.30;7.33;;;;;;;-145.18;100.00;46677.97;5071096;28;20037;-70
2022/07/13 00:36:49;;;;;;;12.23;8.50;;;;;;;-145.18;100.00;46679.94;5070654;28;20036;-71
2022/07/13 00:39:15;;;;;;;10.63;7.63;;;;;;;-145.18;100.00;46677.97;5070938;28;20111;-70
2022/07/13 00:41:47;;;;;;;9.63;8.00;;;;;;;-145.18;100.00;46679.94;5070287;28;20115;-70
2022/07/13 00:44:13;;;;;;;16.87;8.07;;;;;;;-145.18;100.00;46652.59;5070888;28;20036;-71
2022/07/13 00:46:44;;;;;;;11.60;8.10;;;;;;;-145.18;100.00;46644.78;5070553;28;20032;-70
2022/07/13 00:49:11;;;;;;;9.67;8.07;;;;;;;-145.18;100.00;46642.81;5070639;28;20024;-70
2022/07/13 00:51:37;;;;;;;13.37;7.93;;;;;;;-145.18;100.00;46640.88;5070518;28;20511;-70
2022/07/13 00:54:04;;;;;;;9.93;8.60;;;;;;;-145.18;100.00;46642.81;5070324;28;20074;-71
2022/07/13 00:56:30;;;;;;;10.03;8.13;;;;;;;-145.18;100.00;46679.94;5070659;28;20124;-71
2022/07/13 00:58:58;;;;;;;10.27;8.10;;;;;;;-145.18;100.00;46679.94;5069057;28;20052;-70
2022/07/13 01:01:23;;;;;;;10.47;7.97;;;;;;;-145.18;100.00;46660.41;5070590;28;20661;-71
2022/07/13 01:03:48;;;;;;;11.60;7.20;;;;;;;-145.18;100.00;46660.41;5069982;28;20040;-71
2022/07/13 01:06:16;;;;;;;9.77;8.70;;;;;;;-145.18;100.00;46679.94;5070812;28;20068;-71
2022/07/13 01:08:42;;;;;;;15.53;8.27;;;;;;;-145.18;100.00;46677.97;5069699;28;20036;-71
2022/07/13 01:11:08;;;;;;;16.50;7.97;;;;;;;-145.18;100.00;46679.94;5070450;28;20064;-70
2022/07/13 01:13:34;;;;;;;13.17;9.60;;;;;;;-145.18;100.00;46679.94;5070396;28;20037;-70
2022/07/13 01:16:00;;;;;;;10.30;8.20;;;;;;;-145.18;100.00;46660.41;5070427;28;20370;-71
2022/07/13 01:18:26;;;;;;;13.57;9.53;;;;;;;-145.18;100.00;46660.41;5070270;28;20047;-70
2022/07/13 01:20:51;;;;;;;14.27;8.77;;;;;;;-145.18;100.00;46660.41;5070382;28;20064;-71
2022/07/13 01:23:18;;;;;;;11.33;8.20;;;;;;;-145.18;100.00;46660.41;5069888;28;20071;-71
2022/07/13 01:25:44;;;;;;;10.77;9.00;;;;;;;-145.18;100.00;46660.41;5069750;28;20751;-71
2022/07/13 01:28:11;;;;;;;10.30;8.97;;;;;;;-145.18;100.00;46660.41;5070162;28;20051;-71
2022/07/13 01:30:37;;;;;;;9.07;8.17;;;;;;;-145.18;100.00;46679.94;5070097;28;20041;-71
2022/07/13 01:33:02;;;;;;;17.07;8.20;;;;;;;-145.18;100.00;46650.63;5069953;28;20515;-70
2022/07/13 01:35:28;;;;;;;10.47;8.47;;;;;;;-145.18;100.00;46648.69;5070255;28;20111;-70
2022/07/13 01:37:54;;;;;;;13.53;7.87;;;;;;;-145.18;100.00;46652.59;5069712;28;20396;-71
2022/07/13 01:40:20;;;;;;;11.47;8.47;;;;;;;-145.18;100.00;46650.63;5070290;28;20767;-71
2022/07/13 01:42:51;;;;;;;10.30;7.77;;;;;;;-145.18;100.00;46660.41;5069912;28;20068;-71
2022/07/13 01:45:18;;;;;;;9.63;8.63;;;;;;;-145.18;100.00;46668.22;5070562;28;20036;-71
2022/07/13 01:47:48;;;;;;;13.53;7.70;;;;;;;-145.18;100.00;46666.25;5069541;28;20029;-70
2022/07/13 01:50:15;;;;;;;10.73;7.57;;;;;;;-145.18;100.00;46672.13;5070132;28;20473;-71
2022/07/13 01:52:41;;;;;;;12.10;8.10;;;;;;;-145.18;100.00;46662.34;5070004;28;20021;-71
2022/07/13 01:55:09;;;;;;;12.63;7.53;;;;;;;-145.18;100.00;46662.34;5070123;28;20023;-71
2022/07/13 01:57:35;;;;;;;12.97;7.87;;;;;;;-145.18;100.00;46656.50;5069848;28;20055;-71
2022/07/13 02:00:02;;;;;;;11.63;7.37;;;;;;;-145.18;100.00;46660.41;5069921;28;20050;-70
2022/07/13 02:02:28;;;;;;;11.57;7.63;;;;;;;-145.18;100.00;46664.31;5231854;22;20059;-71
2022/07/13 02:04:54;;;;;;;11.03;8.73;;;;;;;-145.18;100.00;46670.16;5070061;28;20036;-72
2022/07/13 02:07:21;;;;;;;10.27;7.60;;;;;;;-145.18;100.00;46676.03;5069568;28;20705;-72
2022/07/13 02:09:46;;;;;;;10.47;7.00;;;;;;;-145.18;100.00;46681.88;5069330;28;20032;-72
2022/07/13 02:12:12;;;;;;;13.80;8.10;;;;;;;-145.18;100.00;46677.97;5069618;28;20044;-72
2022/07/13 02:14:37;;;;;;;11.17;7.90;;;;;;;-145.18;100.00;46674.06;5069978;28;20384;-72
2022/07/13 02:17:04;;;;;;;11.03;8.53;;;;;;;-145.18;100.00;46670.16;5069310;28;20068;-72
2022/07/13 02:19:29;;;;;;;14.87;8.17;;;;;;;-145.18;100.00;46672.13;5069900;28;20033;-72
2022/07/13 02:21:54;;;;;;;10.57;7.80;;;;;;;-145.18;100.00;46666.25;5069491;28;20089;-71
2022/07/13 02:24:20;;;;;;;14.33;8.07;;;;;;;-145.18;100.00;46660.41;5069829;28;20068;-71
2022/07/13 02:26:45;;;;;;;12.67;7.67;;;;;;;-145.18;100.00;46664.31;5069054;28;20032;-71
2022/07/13 02:29:10;;;;;;;16.83;7.73;;;;;;;-145.18;100.00;46646.72;5069771;28;20036;-72
2022/07/13 02:31:36;;;;;;;11.77;7.43;;;;;;;-145.18;100.00;46638.91;5069674;28;20115;-71
2022/07/13 02:34:01;;;;;;;10.40;7.63;;;;;;;-145.18;100.00;46629.13;5069273;28;20135;-72
2022/07/13 02:36:27;;;;;;;12.57;7.83;;;;;;;-145.18;100.00;46633.06;5069577;28;20047;-71
2022/07/13 02:38:52;;;;;;;15.27;7.97;;;;;;;-145.18;100.00;46625.22;5071520;28;20166;-71
2022/07/13 02:41:17;;;;;;;11.70;7.97;;;;;;;-145.18;100.00;46568.59;5073271;28;20040;-72
2022/07/13 02:43:43;;;;;;;11.87;7.70;;;;;;;-145.18;100.00;46562.72;5072717;28;20063;-72
2022/07/13 02:46:08;;;;;;;13.80;8.93;;;;;;;-145.18;100.00;46554.91;5073195;28;20039;-71
2022/07/13 02:48:33;;;;;;;13.73;9.40;;;;;;;-145.18;100.00;46629.13;5072660;28;20090;-72
2022/07/13 02:50:59;;;;;;;15.33;8.83;;;;;;;-145.18;100.00;46654.53;5072842;28;20041;-71
2022/07/13 02:53:24;;;;;;;12.57;9.10;;;;;;;-145.18;100.00;46642.81;5072504;28;20045;-71
2022/07/13 02:55:50;;;;;;;11.53;8.67;;;;;;;-145.18;100.00;46642.81;5072979;28;20044;-72
2022/07/13 02:58:15;;;;;;;13.70;7.43;;;;;;;-145.18;100.00;46660.41;5072785;28;20659;-71
2022/07/13 03:00:40;;;;;;;20.47;8.40;;;;;;;-145.18;100.00;46648.69;5072956;28;20153;-71
2022/07/13 03:03:06;;;;;;;14.57;8.53;;;;;;;-145.18;100.00;46662.34;5050954;28;20120;-72
2022/07/13 03:05:31;;;;;;;11.03;8.20;;;;;;;-145.18;100.00;46662.34;5052996;28;20122;-72
2022/07/13 03:07:57;;;;;;;13.63;9.00;;;;;;;-145.18;100.00;46672.13;5052563;28;20029;-72
2022/07/13 03:10:22;;;;;;;12.90;8.23;;;;;;;-145.18;100.00;46666.25;5052261;28;20488;-72
2022/07/13 03:12:47;;;;;;;10.03;7.80;;;;;;;-145.18;100.00;46670.16;5052407;28;20040;-72
2022/07/13 03:15:13;;;;;;;11.53;7.23;;;;;;;-145.18;100.00;46646.72;5052662;28;20032;-72
2022/07/13 03:17:40;;;;;;;9.90;7.50;;;;;;;-145.18;100.00;46638.91;5034270;28;20108;-72
2022/07/13 03:20:07;;;;;;;10.10;7.60;;;;;;;-145.18;100.00;46677.97;5052669;28;20493;-71
2022/07/13 03:22:32;;;;;;;13.00;8.00;;;;;;;-145.18;100.00;46648.69;5052255;28;20029;-71
2022/07/13 03:24:58;;;;;;;11.03;8.17;;;;;;;-145.18;100.00;46654.53;5052576;28;20055;-72
2022/07/13 03:27:23;;;;;;;12.60;6.87;;;;;;;-145.18;100.00;46640.88;5052004;28;20033;-72
2022/07/13 03:29:48;;;;;;;10.93;6.60;;;;;;;-145.18;100.00;46646.72;5052484;28;20374;-72
2022/07/13 03:32:14;;;;;;;10.03;6.57;;;;;;;-145.18;100.00;46658.44;5051993;28;20523;-72
2022/07/13 03:34:39;;;;;;;9.33;6.20;;;;;;;-145.18;100.00;46662.34;5052424;28;20082;-72
2022/07/13 03:37:04;;;;;;;10.20;6.20;;;;;;;-145.18;100.00;46656.50;5051682;28;20119;-72
2022/07/13 03:39:30;;;;;;;10.20;6.03;;;;;;;-145.18;100.00;46650.63;5052397;28;20056;-72
2022/07/13 03:41:55;;;;;;;9.07;6.23;;;;;;;-145.18;100.00;46640.88;5051641;28;20489;-72
2022/07/13 03:44:20;;;;;;;9.53;5.40;;;;;;;-145.18;100.00;46660.41;5052083;28;20048;-72
2022/07/13 03:46:46;;;;;;;9.40;5.83;;;;;;;-145.18;100.00;46633.06;5052195;28;20083;-72
2022/07/13 03:49:12;;;;;;;7.70;6.03;;;;;;;-145.18;100.00;46625.22;5051622;28;20041;-71
2022/07/13 03:51:38;;;;;;;7.13;5.30;;;;;;;-145.18;100.00;46625.22;5051847;28;20048;-72
2022/07/13 03:54:03;;;;;;;7.83;5.47;;;;;;;-145.18;100.00;46623.28;5051540;28;20051;-72
2022/07/13 03:56:29;;;;;;;12.60;5.43;;;;;;;-145.18;100.00;46623.28;5051801;28;20388;-72
2022/07/13 03:58:55;;;;;;;8.47;5.97;;;;;;;-145.18;100.00;46625.22;5051397;28;20071;-72
2022/07/13 04:01:20;;;;;;;10.40;5.27;;;;;;;-145.18;100.00;46572.50;5051737;28;20500;-72
2022/07/13 04:03:47;;;;;;;7.97;5.60;;;;;;;-145.18;100.00;46619.38;5051182;28;20055;-72
2022/07/13 04:06:12;;;;;;;8.90;5.20;;;;;;;-145.18;100.00;46621.31;5051780;28;20039;-72
2022/07/13 04:08:37;;;;;;;7.07;5.33;;;;;;;-145.18;100.00;46648.69;5051382;28;20056;-72
2022/07/13 04:11:03;;;;;;;8.10;5.97;;;;;;;-145.18;100.00;46668.22;5051160;28;20115;-72
2022/07/13 04:13:28;;;;;;;11.33;5.53;;;;;;;-145.18;100.00;46679.94;5051185;28;20079;-72
2022/07/13 04:15:53;;;;;;;10.90;6.23;;;;;;;-145.18;100.00;46668.22;5051546;28;20044;-72
2022/07/13 04:18:19;;;;;;;14.03;5.93;;;;;;;-145.18;100.00;46666.25;5051192;28;20033;-72
2022/07/13 04:20:44;;;;;;;11.77;6.50;;;;;;;-145.18;100.00;46668.22;5051483;28;20036;-71
2022/07/13 04:23:09;;;;;;;11.20;5.53;;;;;;;-145.18;100.00;46660.41;5051007;28;20098;-72
2022/07/13 04:25:35;;;;;;;6.37;5.10;;;;;;;-145.18;100.00;46670.16;5050340;28;20040;-72
2022/07/13 04:28:00;;;;;;;11.10;5.67;;;;;;;-145.18;100.00;46670.16;5049048;28;20370;-72
2022/07/13 04:30:26;;;;;;;10.77;5.73;;;;;;;-145.18;100.00;46670.16;5049653;28;20110;-72
2022/07/13 04:32:52;;;;;;;11.47;5.23;;;;;;;-145.18;100.00;46668.22;5050033;28;20072;-71
2022/07/13 04:35:17;;;;;;;7.87;5.27;;;;;;;-145.18;100.00;46652.59;5050269;28;20120;-71
2022/07/13 04:37:42;;;;;;;7.97;5.30;;;;;;;-145.18;100.00;46664.31;5049860;28;20061;-71
2022/07/13 04:40:08;;;;;;;9.57;5.10;;;;;;;-145.18;100.00;46664.31;5050155;28;20036;-72
2022/07/13 04:42:34;;;;;;;9.13;4.40;;;;;;;-145.18;100.00;46668.22;5050471;28;20631;-72
2022/07/13 04:44:59;;;;;;;7.10;4.70;;;;;;;-145.18;100.00;46650.63;5050571;28;20370;-72
2022/07/13 04:47:24;;;;;;;10.80;4.33;;;;;;;-145.18;100.00;46652.59;5049442;28;20037;-72
2022/07/13 04:49:50;;;;;;;6.70;4.93;;;;;;;-145.18;100.00;46564.69;5050619;28;20029;-72
2022/07/13 04:52:16;;;;;;;9.17;4.80;;;;;;;-145.18;100.00;46572.50;5050468;28;20036;-72
2022/07/13 04:54:41;;;;;;;7.70;4.63;;;;;;;-145.18;100.00;46547.09;5050816;28;20041;-72
2022/07/13 04:57:06;;;;;;;7.43;4.67;;;;;;;-145.18;100.00;46547.09;5050489;28;20045;-72
2022/07/13 04:59:32;;;;;;;15.27;4.97;;;;;;;-145.18;100.00;46552.97;5049477;28;20090;-72
2022/07/13 05:01:57;;;;;;;9.47;4.40;;;;;;;-145.18;100.00;46576.41;5049767;28;20112;-72
2022/07/13 05:04:24;;;;;;;7.03;4.27;;;;;;;-145.18;100.00;46551.00;5050358;28;20040;-72
2022/07/13 05:06:49;;;;;;;8.57;4.43;;;;;;;-145.18;100.00;46547.09;5050553;28;20044;-72
2022/07/13 05:09:15;;;;;;;9.40;4.93;;;;;;;-145.18;100.00;46566.63;5050026;28;20033;-72
2022/07/13 05:11:40;;;;;;;9.43;5.73;;;;;;;-145.18;100.00;46545.16;5050470;28;20029;-72
2022/07/13 05:14:05;;;;;;;8.23;5.17;;;;;;;-145.18;100.00;46570.53;5049882;28;20064;-73
2022/07/13 05:16:31;;;;;;;8.13;4.77;;;;;;;-145.18;100.00;46560.78;5050719;28;20094;-72
2022/07/13 05:18:57;;;;;;;10.13;5.37;;;;;;;-145.18;100.00;46574.44;5049665;28;20474;-72
2022/07/13 05:21:23;;;;;;;7.60;5.23;;;;;;;-145.18;100.00;46660.41;5049071;28;20037;-72
2022/07/13 05:23:48;;;;;;;10.37;5.40;;;;;;;-145.18;100.00;46652.59;5048463;28;20033;-74
2022/07/13 05:26:13;;;;;;;10.90;5.37;;;;;;;-145.18;100.00;46640.88;5050461;28;20045;-72
2022/07/13 05:28:39;;;;;;;8.80;5.70;;;;;;;-145.18;100.00;46652.59;5050129;28;20059;-72
2022/07/13 05:31:04;;;;;;;9.50;5.20;;;;;;;-145.18;100.00;46660.41;5049968;28;20041;-72
2022/07/13 05:33:30;;;;;;;7.63;5.57;;;;;;;-145.18;100.00;46668.22;5049782;28;20039;-72
2022/07/13 05:35:55;;;;;;;8.60;4.77;;;;;;;-145.18;100.00;46664.31;5050040;28;20440;-74
2022/07/13 05:38:21;;;;;;;9.70;5.50;;;;;;;-145.18;100.00;46664.31;5050239;28;20485;-74
2022/07/13 05:40:46;;;;;;;11.70;5.37;;;;;;;-145.18;100.00;46638.91;5050356;28;20404;-73
2022/07/13 05:43:13;;;;;;;10.90;6.00;;;;;;;-145.18;100.00;46572.50;5049803;28;20060;-73
2022/07/13 05:45:38;;;;;;;11.23;5.70;;;;;;;-145.18;100.00;46551.00;5050230;28;20116;-73
2022/07/13 05:48:04;;;;;;;10.00;5.83;;;;;;;-145.18;100.00;46572.50;5049631;28;20048;-73
2022/07/13 05:50:29;;;;;;;11.17;6.03;;;;;;;-145.18;100.00;46644.78;5050229;28;20060;-73
2022/07/13 05:52:54;;;;;;;8.37;5.70;;;;;;;-145.18;100.00;46679.94;5049853;28;20055;-72
2022/07/13 05:55:20;;;;;;;10.73;6.30;;;;;;;-145.18;100.00;46681.88;5050320;28;20582;-73
2022/07/13 05:57:45;;;;;;;10.57;6.43;;;;;;;-145.18;100.00;46672.13;5048529;28;20394;-73
2022/07/13 06:00:13;;;;;;;16.03;7.93;;;;;;;-145.18;100.00;46668.22;5050046;28;20059;-73
2022/07/13 06:02:40;;;;;;;13.47;7.20;;;;;;;-145.18;100.00;46668.22;5049461;28;20061;-73
2022/07/13 06:05:06;;;;;;;11.70;6.50;;;;;;;-145.18;100.00;46668.22;5050004;28;20040;-72
2022/07/13 06:07:31;;;;;;;19.13;7.10;;;;;;;-145.18;100.00;46672.13;5053372;28;20052;-72
2022/07/13 06:09:58;;;;;;;9.60;6.53;;;;;;;-145.18;100.00;46670.16;5051820;28;20918;-73
2022/07/13 06:12:24;;;;;;;9.73;6.20;;;;;;;-145.18;100.00;46676.03;5059222;28;20176;-73
2022/07/13 06:14:50;;;;;;;9.97;6.47;;;;;;;-145.18;100.00;46670.16;5072645;28;20698;-72
2022/07/13 06:17:15;;;;;;;19.07;5.80;;;;;;;-145.18;100.00;46674.06;5074114;28;20124;-72
2022/07/13 06:19:41;;;;;;;10.53;5.30;;;;;;;-145.18;100.00;46674.06;5073366;28;20075;-72
2022/07/13 06:22:06;;;;;;;10.73;5.90;;;;;;;-145.18;100.00;46674.06;5073638;28;20037;-72
2022/07/13 06:24:31;;;;;;;7.97;5.60;;;;;;;-145.18;100.00;46668.22;5069197;28;20078;-72
2022/07/13 06:26:57;;;;;;;11.30;6.70;;;;;;;-145.18;100.00;46666.25;5073357;28;20093;-72
2022/07/13 06:29:22;;;;;;;10.13;5.17;;;;;;;-145.18;100.00;46672.13;5043953;28;20075;-72
2022/07/13 06:31:48;;;;;;;7.50;5.70;;;;;;;-145.18;100.00;46668.22;5065738;28;20032;-72
2022/07/13 06:34:13;;;;;;;8.57;5.23;;;;;;;-145.18;100.00;46672.13;5065063;28;20029;-72
2022/07/13 06:36:39;;;;;;;11.47;6.03;;;;;;;-145.18;100.00;46668.22;5057981;28;20032;-72
2022/07/13 06:39:04;;;;;;;9.13;5.80;;;;;;;-145.18;100.00;46674.06;5057721;28;20025;-72
2022/07/13 06:41:30;;;;;;;15.00;5.50;;;;;;;-145.18;100.00;46668.22;5053061;28;20044;-72
2022/07/13 06:43:55;;;;;;;12.40;5.93;;;;;;;-145.18;100.00;46668.22;5068448;28;20036;-72
2022/07/13 06:46:20;;;;;;;10.50;5.40;;;;;;;-145.18;100.00;46672.13;5063338;28;20478;-72
2022/07/13 06:48:46;;;;;;;8.83;4.93;;;;;;;-145.18;100.00;46676.03;5072757;28;20067;-72
2022/07/13 06:51:11;;;;;;;8.40;5.50;;;;;;;-145.18;100.00;46666.25;5054888;28;20104;-72
2022/07/13 06:53:36;;;;;;;7.53;5.10;;;;;;;-145.18;100.00;46670.16;5071990;28;20055;-71
2022/07/13 06:56:02;;;;;;;7.97;5.07;;;;;;;-145.18;100.00;46668.22;5072912;28;20036;-71
2022/07/13 06:58:27;;;;;;;14.70;5.47;;;;;;;-145.18;100.00;46666.25;5072632;28;20032;-71
2022/07/13 07:00:53;;;;;;;14.00;4.40;;;;;;;-145.18;100.00;46660.41;5072637;28;20119;-71
2022/07/13 07:03:18;;;;;;;10.00;4.73;;;;;;;-145.18;100.00;46664.31;5072190;28;20052;-71
2022/07/13 07:05:44;;;;;;;8.43;4.60;;;;;;;-145.18;100.00;46662.34;5072206;28;20078;-71
2022/07/13 07:08:10;;;;;;;9.77;4.60;;;;;;;-145.18;100.00;46668.22;5071872;28;20081;-71
2022/07/13 07:10:35;;;;;;;10.83;4.73;;;;;;;-145.18;100.00;46658.44;5072616;28;20037;-71
2022/07/13 07:13:01;;;;;;;6.73;4.80;;;;;;;-145.18;100.00;46660.41;5071788;28;20138;-71
2022/07/13 07:15:26;;;;;;;8.37;4.93;;;;;;;-145.18;100.00;46656.50;5072684;28;20037;-71
2022/07/13 07:17:51;;;;;;;5.63;4.83;;;;;;;-145.18;100.00;46654.53;5071676;28;20079;-71
2022/07/13 07:20:17;;;;;;;9.70;5.00;;;;;;;-145.18;100.00;46664.31;5072277;28;20036;-71
2022/07/13 07:22:45;;;;;;;6.77;4.93;;;;;;;-145.18;100.00;46664.31;5072274;28;20029;-71
2022/07/13 07:25:11;;;;;;;13.93;5.57;;;;;;;-145.18;100.00;46664.31;5071837;28;20473;-71
2022/07/13 07:27:36;;;;;;;9.43;4.57;;;;;;;-145.18;100.00;46656.50;5072187;28;20040;-72
2022/07/13 07:30:02;;;;;;;8.70;4.77;;;;;;;-145.18;100.00;46658.44;5072046;28;20041;-70
2022/07/13 07:32:28;;;;;;;12.50;4.77;;;;;;;-145.18;100.00;46646.72;5072377;28;20090;-71
2022/07/13 07:34:53;;;;;;;9.70;4.93;;;;;;;-145.18;100.00;46652.59;5071964;28;20032;-73
2022/07/13 07:37:20;;;;;;;9.37;5.67;;;;;;;-145.18;100.00;46638.91;5072224;28;20040;-72
2022/07/13 07:39:46;;;;;;;14.60;5.00;;;;;;;-145.18;100.00;46644.78;5072024;28;20035;-73
2022/07/13 07:42:12;;;;;;;10.03;4.87;;;;;;;-145.18;100.00;46666.25;5072049;28;20044;-72
2022/07/13 07:44:37;;;;;;;9.30;4.87;;;;;;;-145.18;100.00;46666.25;5072001;28;20032;-72
2022/07/13 07:47:02;;;;;;;11.03;5.23;;;;;;;-145.18;100.00;46664.31;5071906;28;20469;-71
2022/07/13 07:49:28;;;;;;;6.03;5.40;;;;;;;-145.18;100.00;46662.34;5071838;28;20504;-74
2022/07/13 07:51:53;;;;;;;8.43;5.17;;;;;;;-145.18;100.00;46666.25;5070279;28;20040;-71
2022/07/13 07:54:19;;;;;;;15.93;5.67;;;;;;;-145.18;100.00;46666.25;5071711;28;20020;-71
2022/07/13 07:56:44;;;;;;;8.03;4.97;;;;;;;-145.18;100.00;46660.41;5072070;28;20033;-72
2022/07/13 07:59:09;;;;;;;9.37;4.93;;;;;;;-145.18;100.00;46662.34;5070587;28;20457;-72
2022/07/13 08:01:35;;;;;;;11.63;4.77;;;;;;;-145.18;100.00;46660.41;5068450;28;20040;-72
2022/07/13 08:04:00;;;;;;;13.63;5.23;;;;;;;-145.18;100.00;46656.50;5060968;28;20150;-73
2022/07/13 08:06:25;;;;;;;16.63;5.37;;;;;;;-145.18;100.00;46666.25;5051408;28;20048;-72
2022/07/13 08:08:51;;;;;;;10.37;4.60;;;;;;;-145.18;100.00;46664.31;5066694;28;20052;-72
2022/07/13 08:11:17;;;;;;;7.13;4.77;;;;;;;-145.18;100.00;46662.34;5068784;28;20032;-72
2022/07/13 08:13:44;;;;;;;9.47;4.63;;;;;;;-145.18;100.00;46666.25;5062954;28;20044;-72
2022/07/13 08:16:10;;;;;;;12.37;5.07;;;;;;;-145.18;100.00;46660.41;5051081;28;20033;-72
2022/07/13 08:18:36;;;;;;;9.87;5.20;;;;;;;-145.18;100.00;46658.44;5050960;28;20033;-72
2022/07/13 08:21:01;;;;;;;9.47;4.70;;;;;;;-145.18;100.00;46648.69;5050812;28;20449;-72
2022/07/13 08:26:10;;;;;;;9.70;4.30;;;;;;;-145.18;100.00;46648.69;5050846;28;20068;-72
2022/07/13 08:28:35;;;;;;;7.03;4.83;;;;;;;-145.18;100.00;46650.63;5050808;28;20637;-72
2022/07/13 08:31:01;;;;;;;8.33;4.63;;;;;;;-145.18;100.00;46650.63;5050336;28;20037;-72
2022/07/13 08:38:54;;;;;;;7.83;4.17;;;;;;;-145.18;100.00;46650.63;5049608;28;20040;-73
2022/07/13 08:41:19;;;;;;;9.13;4.90;;;;;;;-145.18;100.00;46588.13;5050406;28;20037;-72
2022/07/13 08:43:45;;;;;;;6.97;4.13;;;;;;;-145.18;100.00;46558.81;5050090;28;20041;-72
2022/07/13 08:46:11;;;;;;;8.93;4.40;;;;;;;-145.18;100.00;46551.00;5050449;28;20033;-73
2022/07/13 08:48:38;;;;;;;10.27;4.03;;;;;;;-145.18;100.00;46543.19;5050390;28;20033;-72
2022/07/13 08:51:05;;;;;;;9.13;4.70;;;;;;;-145.18;100.00;46527.56;5050387;28;20159;-72
2022/07/13 08:53:30;;;;;;;5.10;4.13;;;;;;;-145.18;100.00;46578.34;5050493;28;20108;-73
2022/07/13 08:55:57;;;;;;;8.77;4.63;;;;;;;-145.18;100.00;46570.53;5052739;28;20103;-73
2022/07/13 08:58:22;;;;;;;8.40;4.73;;;;;;;-145.18;100.00;46551.00;5069496;28;20028;-73
2022/07/13 09:00:49;;;;;;;11.80;5.07;;;;;;;-145.18;100.00;46556.88;5070714;28;20636;-72
2022/07/13 09:03:14;;;;;;;7.70;4.30;;;;;;;-145.18;100.00;46556.88;5069588;28;20458;-73
2022/07/13 09:05:40;;;;;;;11.47;4.30;;;;;;;-145.18;100.00;46531.47;5070295;28;20111;-73
2022/07/13 09:08:08;;;;;;;8.33;4.63;;;;;;;-145.18;100.00;46531.47;5069913;28;20398;-73
2022/07/13 09:10:52;;;;;;;7.05;4.30;;;;;;;-145.18;100.00;46521.72;5070390;28;20036;-73
2022/07/13 09:13:33;;;;;;;7.85;4.20;;;;;;;-145.18;100.00;46515.84;5070166;28;20062;-73
2022/07/13 09:16:19;;;;;;;7.20;4.50;;;;;;;-145.18;100.00;46523.66;5070264;28;20134;-72
2022/07/13 09:18:59;;;;;;;9.45;4.25;;;;;;;-145.18;100.00;46523.66;5070178;28;20025;-73
2022/07/13 09:21:26;;;;;;;8.15;4.55;;;;;;;-145.18;100.00;46525.63;5070287;28;20083;-72
2022/07/13 09:23:57;;;;;;;8.18;4.43;;;;;;;-145.18;100.00;46517.81;5069808;28;20028;-73
2022/07/13 09:26:23;;;;;;;8.43;4.53;;;;;;;-145.18;100.00;46529.53;5060377;28;20025;-73
2022/07/13 09:28:50;;;;;;;10.47;5.57;;;;;;;-145.18;100.00;46527.56;5050063;28;20028;-72
2022/07/13 09:31:17;;;;;;;8.85;5.35;;;;;;;-145.18;100.00;46510.00;5068240;28;20121;-72
2022/07/13 09:33:45;;;;;;;14.95;5.13;;;;;;;-145.18;100.00;46523.66;5069517;28;20102;-73
2022/07/13 09:36:24;;;;;;;10.20;4.93;;;;;;;-145.18;100.00;46515.84;5070229;28;20032;-73
2022/07/13 09:38:56;;;;;;;11.48;4.82;;;;;;;-145.18;100.00;46502.19;5069948;28;20025;-73
2022/07/13 09:41:25;;;;;;;5.75;4.30;;;;;;;-145.18;100.00;46515.84;5066932;28;20048;-73
2022/07/13 09:46:57;;;;;;;10.07;4.28;;;;;;;-145.18;100.00;46513.91;5050987;28;20086;-73
2022/07/13 09:49:30;;;;;;;12.85;5.18;;;;;;;-145.18;100.00;46506.09;5071190;28;20517;-73
2022/07/13 09:51:57;;;;;;;7.05;4.85;;;;;;;-145.18;100.00;46506.09;5074115;28;20094;-73
2022/07/13 09:54:28;;;;;;;6.90;4.20;;;;;;;-145.18;100.00;46523.66;5073759;28;20059;-72
2022/07/13 09:57:00;;;;;;;7.53;4.20;;;;;;;-145.18;100.00;46508.03;5073701;28;20374;-73
2022/07/13 09:59:28;;;;;;;9.68;4.25;;;;;;;-145.18;100.00;46511.94;5073868;28;20025;-72
2022/07/13 10:01:54;;;;;;;8.57;4.05;;;;;;;-145.18;100.00;46502.19;5074105;28;20040;-72
2022/07/13 10:04:21;;;;;;;7.00;4.03;;;;;;;-145.18;100.00;46472.88;5073061;28;20064;-74
2022/07/13 10:06:46;;;;;;;9.30;4.15;;;;;;;-145.18;100.00;46478.75;5072601;28;20028;-74
2022/07/13 10:09:12;;;;;;;7.47;4.15;;;;;;;-145.18;100.00;46492.41;5071403;28;20044;-74
2022/07/13 10:11:37;;;;;;;8.65;4.57;;;;;;;-145.18;100.00;46510.00;5073551;28;20041;-74
2022/07/13 10:14:04;;;;;;;11.88;4.10;;;;;;;-145.18;100.00;46500.22;5073063;28;20106;-73
2022/07/13 10:16:32;;;;;;;8.52;4.57;;;;;;;-145.18;100.00;46517.81;5073772;28;20562;-73
2022/07/13 10:19:03;;;;;;;11.90;4.90;;;;;;;-145.18;100.00;46515.84;5065181;28;20128;-72
2022/07/13 10:21:52;;;;;;;9.40;4.95;;;;;;;-145.18;100.00;46504.13;5053680;28;20579;-73
2022/07/13 10:24:18;;;;;;;11.27;4.30;;;;;;;-145.18;100.00;46519.75;5063542;28;20129;-72
2022/07/13 10:26:47;;;;;;;13.35;4.50;;;;;;;-145.18;100.00;46519.75;5073873;28;20124;-73
2022/07/13 10:29:15;;;;;;;8.50;4.40;;;;;;;-145.18;100.00;46510.00;5072621;28;20056;-72
2022/07/13 10:31:42;;;;;;;7.93;4.50;;;;;;;-145.18;100.00;46506.09;5073846;28;20584;-73
2022/07/13 10:34:09;;;;;;;7.28;4.47;;;;;;;-145.18;100.00;46500.22;5072883;28;20032;-73
2022/07/13 10:36:56;;;;;;;8.93;4.25;;;;;;;-145.18;100.00;46492.41;5073481;28;20024;-73
2022/07/13 10:39:24;;;;;;;10.25;5.05;;;;;;;-145.18;100.00;46521.72;5072858;28;20037;-73
2022/07/13 10:42:00;;;;;;;12.00;4.40;;;;;;;-145.18;100.00;46478.75;5073258;28;20032;-73
2022/07/13 10:44:40;;;;;;;7.35;4.20;;;;;;;-145.18;100.00;46490.47;5071551;28;20032;-73
2022/07/13 10:47:11;;;;;;;11.25;4.00;;;;;;;-145.18;100.00;46506.09;5062389;28;20060;-73
2022/07/13 10:49:46;;;;;;;11.32;4.20;;;;;;;-145.18;100.00;46451.41;5073110;28;20044;-73
2022/07/13 10:55:05;;;;;;;17.15;4.93;;;;;;;-145.18;100.00;46467.03;5072392;28;20028;-73
2022/07/13 10:57:32;;;;;;;8.23;3.63;;;;;;;-145.18;100.00;46717.03;5056423;28;20033;-73
2022/07/13 11:02:53;;;;;;;5.07;3.08;;;;;;;-145.18;100.00;47072.56;5055463;28;20056;-73
2022/07/13 11:05:26;;;;;;;12.00;3.30;;;;;;;-145.18;100.00;47031.53;5051711;28;20083;-75
2022/07/13 11:07:53;;;;;;;6.57;2.85;;;;;;;-145.18;100.00;46697.50;5053065;28;20056;-73
2022/07/13 11:10:28;;;;;;;9.45;3.10;;;;;;;-145.18;100.00;46558.81;5052308;28;20440;-73
2022/07/13 11:13:09;;;;;;;6.65;3.22;;;;;;;-145.18;100.00;46527.56;5052831;28;20025;-73
2022/07/13 11:15:52;;;;;;;7.05;3.53;;;;;;;-145.18;100.00;46457.25;5061625;28;20117;-73
2022/07/13 11:18:33;;;;;;;8.13;3.78;;;;;;;-145.18;100.00;47006.16;5072310;28;20024;-73